sensor_id;sensor_type;location;lat;lon;timestamp;temperature;humidity
5461;DHT22;2753;49.196;8.286;2022-10-14T00:01:19;14.20;99.90
5461;DHT22;2753;49.196;8.286;2022-10-14T00:03:46;14.10;99.90
5461;DHT22;2753;49.196;8.286;2022-10-14T00:06:14;14.10;99.90
5461;DHT22;2753;49.196;8.286;2022-10-14T00:08:42;14.20;99.90
5461;DHT22;2753;49.196;8.286;2022-10-14T00:11:10;14.10;99.90
5461;DHT22;2753;49.196;8.286;2022-10-14T00:13:37;14.10;99.90
5461;DHT22;2753;49.196;8.286;2022-10-14T00:16:03;14.10;99.90
5461;DHT22;2753;49.196;8.286;2022-10-14T00:18:29;14.10;99.90
5461;DHT22;2753;49.196;8.286;2022-10-14T00:20:57;14.10;99.90
5461;DHT22;2753;49.196;8.286;2022-10-14T00:23:23;14.10;99.90
5461;DHT22;2753;49.196;8.286;2022-10-14T00:25:48;14.10;99.90
5461;DHT22;2753;49.196;8.286;2022-10-14T00:28:14;14.10;99.90
5461;DHT22;2753;49.196;8.286;2022-10-14T00:30:40;14.10;99.90
5461;DHT22;2753;49.196;8.286;2022-10-14T00:33:05;14.10;99.90
5461;DHT22;2753;49.196;8.286;2022-10-14T00:35:31;14.10;99.90
5461;DHT22;2753;49.196;8.286;2022-10-14T00:37:57;14.00;99.90
5461;DHT22;2753;49.196;8.286;2022-10-14T00:40:24;14.00;99.90
5461;DHT22;2753;49.196;8.286;2022-10-14T00:42:50;14.10;99.90
5461;DHT22;2753;49.196;8.286;2022-10-14T00:45:21;14.10;99.90
5461;DHT22;2753;49.196;8.286;2022-10-14T00:47:48;14.10;99.90
5461;DHT22;2753;49.196;8.286;2022-10-14T00:50:15;14.10;99.90
5461;DHT22;2753;49.196;8.286;2022-10-14T00:52:42;14.00;99.90
5461;DHT22;2753;49.196;8.286;2022-10-14T00:55:14;14.00;99.90
5461;DHT22;2753;49.196;8.286;2022-10-14T00:57:40;14.00;99.90
5461;DHT22;2753;49.196;8.286;2022-10-14T01:00:12;14.00;99.90
5461;DHT22;2753;49.196;8.286;2022-10-14T01:02:38;14.00;99.90
5461;DHT22;2753;49.196;8.286;2022-10-14T01:05:05;14.00;99.90
5461;DHT22;2753;49.196;8.286;2022-10-14T01:16:03;14.00;99.90
5461;DHT22;2753;49.196;8.286;2022-10-14T01:21:39;14.00;99.90
5461;DHT22;2753;49.196;8.286;2022-10-14T01:32:26;13.90;99.90
5461;DHT22;2753;49.196;8.286;2022-10-14T01:35:05;14.00;99.90
5461;DHT22;2753;49.196;8.286;2022-10-14T01:37:36;13.90;99.90
5461;DHT22;2753;49.196;8.286;2022-10-14T01:40:08;13.90;99.90
5461;DHT22;2753;49.196;8.286;2022-10-14T01:42:38;13.90;99.90
5461;DHT22;2753;49.196;8.286;2022-10-14T01:45:10;13.90;99.90
5461;DHT22;2753;49.196;8.286;2022-10-14T01:47:37;13.90;99.90
5461;DHT22;2753;49.196;8.286;2022-10-14T01:50:10;13.90;99.90
5461;DHT22;2753;49.196;8.286;2022-10-14T01:52:43;13.90;99.90
5461;DHT22;2753;49.196;8.286;2022-10-14T01:55:15;13.90;99.90
5461;DHT22;2753;49.196;8.286;2022-10-14T01:57:43;13.80;99.90
5461;DHT22;2753;49.196;8.286;2022-10-14T02:00:10;13.80;99.90
5461;DHT22;2753;49.196;8.286;2022-10-14T02:02:37;13.80;99.90
5461;DHT22;2753;49.196;8.286;2022-10-14T02:05:07;13.80;99.90
5461;DHT22;2753;49.196;8.286;2022-10-14T02:07:42;13.80;99.90
5461;DHT22;2753;49.196;8.286;2022-10-14T02:26:35;13.80;99.90
5461;DHT22;2753;49.196;8.286;2022-10-14T02:29:02;13.80;99.90
5461;DHT22;2753;49.196;8.286;2022-10-14T02:31:29;13.80;99.90
5461;DHT22;2753;49.196;8.286;2022-10-14T02:34:01;13.80;99.90
5461;DHT22;2753;49.196;8.286;2022-10-14T02:36:28;13.80;99.90
5461;DHT22;2753;49.196;8.286;2022-10-14T02:38:56;13.80;99.90
5461;DHT22;2753;49.196;8.286;2022-10-14T02:41:26;13.80;99.90
5461;DHT22;2753;49.196;8.286;2022-10-14T02:43:53;13.90;99.90
5461;DHT22;2753;49.196;8.286;2022-10-14T02:46:20;13.80;99.90
5461;DHT22;2753;49.196;8.286;2022-10-14T02:48:46;13.80;99.90
5461;DHT22;2753;49.196;8.286;2022-10-14T02:51:12;13.80;99.90
5461;DHT22;2753;49.196;8.286;2022-10-14T02:53:37;13.80;99.90
5461;DHT22;2753;49.196;8.286;2022-10-14T02:56:03;13.80;99.90
5461;DHT22;2753;49.196;8.286;2022-10-14T02:58:29;13.80;99.90
5461;DHT22;2753;49.196;8.286;2022-10-14T03:00:55;13.80;99.90
5461;DHT22;2753;49.196;8.286;2022-10-14T03:03:20;13.80;99.90
5461;DHT22;2753;49.196;8.286;2022-10-14T03:05:46;13.80;99.90
5461;DHT22;2753;49.196;8.286;2022-10-14T03:08:12;13.80;99.90
5461;DHT22;2753;49.196;8.286;2022-10-14T03:10:37;13.80;99.90
5461;DHT22;2753;49.196;8.286;2022-10-14T03:13:03;13.80;99.90
5461;DHT22;2753;49.196;8.286;2022-10-14T03:15:29;13.80;99.90
5461;DHT22;2753;49.196;8.286;2022-10-14T03:17:54;13.80;99.90
5461;DHT22;2753;49.196;8.286;2022-10-14T03:20:20;13.80;99.90
5461;DHT22;2753;49.196;8.286;2022-10-14T03:22:46;13.70;99.90
5461;DHT22;2753;49.196;8.286;2022-10-14T03:25:12;13.80;99.90
5461;DHT22;2753;49.196;8.286;2022-10-14T03:27:37;13.70;99.90
5461;DHT22;2753;49.196;8.286;2022-10-14T03:30:03;13.70;99.90
5461;DHT22;2753;49.196;8.286;2022-10-14T03:32:29;13.70;99.90
5461;DHT22;2753;49.196;8.286;2022-10-14T03:34:54;13.70;99.90
5461;DHT22;2753;49.196;8.286;2022-10-14T03:37:20;13.70;99.90
5461;DHT22;2753;49.196;8.286;2022-10-14T03:39:46;13.70;99.90
5461;DHT22;2753;49.196;8.286;2022-10-14T03:42:11;13.60;99.90
5461;DHT22;2753;49.196;8.286;2022-10-14T03:44:37;13.70;99.90
5461;DHT22;2753;49.196;8.286;2022-10-14T03:47:03;13.70;99.90
5461;DHT22;2753;49.196;8.286;2022-10-14T03:49:29;13.70;99.90
5461;DHT22;2753;49.196;8.286;2022-10-14T03:51:54;13.70;99.90
5461;DHT22;2753;49.196;8.286;2022-10-14T03:54:20;13.70;99.90
5461;DHT22;2753;49.196;8.286;2022-10-14T03:56:45;13.70;99.90
5461;DHT22;2753;49.196;8.286;2022-10-14T03:59:11;13.60;99.90
5461;DHT22;2753;49.196;8.286;2022-10-14T04:01:37;13.60;99.90
5461;DHT22;2753;49.196;8.286;2022-10-14T04:04:02;13.60;99.90
5461;DHT22;2753;49.196;8.286;2022-10-14T04:06:28;13.60;99.90
5461;DHT22;2753;49.196;8.286;2022-10-14T04:08:55;13.60;99.90
5461;DHT22;2753;49.196;8.286;2022-10-14T04:11:21;13.60;99.90
5461;DHT22;2753;49.196;8.286;2022-10-14T04:13:46;13.60;99.90
5461;DHT22;2753;49.196;8.286;2022-10-14T04:16:12;13.50;99.90
5461;DHT22;2753;49.196;8.286;2022-10-14T04:18:38;13.50;99.90
5461;DHT22;2753;49.196;8.286;2022-10-14T04:21:10;13.50;99.90
5461;DHT22;2753;49.196;8.286;2022-10-14T04:23:36;13.60;99.90
5461;DHT22;2753;49.196;8.286;2022-10-14T04:26:06;13.60;99.90
5461;DHT22;2753;49.196;8.286;2022-10-14T04:28:32;13.60;99.90
5461;DHT22;2753;49.196;8.286;2022-10-14T04:30:58;13.50;99.90
5461;DHT22;2753;49.196;8.286;2022-10-14T04:33:25;13.50;99.90
5461;DHT22;2753;49.196;8.286;2022-10-14T04:35:59;13.50;99.90
5461;DHT22;2753;49.196;8.286;2022-10-14T04:38:25;13.50;99.90
5461;DHT22;2753;49.196;8.286;2022-10-14T04:40:51;13.50;99.90
5461;DHT22;2753;49.196;8.286;2022-10-14T04:43:17;13.60;99.90
5461;DHT22;2753;49.196;8.286;2022-10-14T04:45:43;13.50;99.90
5461;DHT22;2753;49.196;8.286;2022-10-14T04:48:08;13.50;99.90
5461;DHT22;2753;49.196;8.286;2022-10-14T04:50:34;13.50;99.90
5461;DHT22;2753;49.196;8.286;2022-10-14T04:53:00;13.50;99.90
5461;DHT22;2753;49.196;8.286;2022-10-14T04:55:25;13.50;99.90
5461;DHT22;2753;49.196;8.286;2022-10-14T04:57:54;13.50;99.90
5461;DHT22;2753;49.196;8.286;2022-10-14T05:00:20;13.50;99.90
5461;DHT22;2753;49.196;8.286;2022-10-14T05:02:46;13.50;99.90
5461;DHT22;2753;49.196;8.286;2022-10-14T05:05:12;13.50;99.90
5461;DHT22;2753;49.196;8.286;2022-10-14T05:07:39;13.40;99.90
5461;DHT22;2753;49.196;8.286;2022-10-14T05:10:06;13.40;99.90
5461;DHT22;2753;49.196;8.286;2022-10-14T05:12:34;13.40;99.90
5461;DHT22;2753;49.196;8.286;2022-10-14T05:15:00;13.40;99.90
5461;DHT22;2753;49.196;8.286;2022-10-14T05:17:26;13.40;99.90
5461;DHT22;2753;49.196;8.286;2022-10-14T05:19:51;13.40;99.90
5461;DHT22;2753;49.196;8.286;2022-10-14T05:22:17;13.40;99.90
5461;DHT22;2753;49.196;8.286;2022-10-14T05:24:42;13.40;99.90
5461;DHT22;2753;49.196;8.286;2022-10-14T05:27:08;13.40;99.90
5461;DHT22;2753;49.196;8.286;2022-10-14T05:29:34;13.40;99.90
5461;DHT22;2753;49.196;8.286;2022-10-14T05:31:59;13.40;99.90
5461;DHT22;2753;49.196;8.286;2022-10-14T05:34:25;13.40;99.90
5461;DHT22;2753;49.196;8.286;2022-10-14T05:36:51;13.40;99.90
5461;DHT22;2753;49.196;8.286;2022-10-14T05:39:16;13.40;99.90
5461;DHT22;2753;49.196;8.286;2022-10-14T05:41:42;13.40;99.90
5461;DHT22;2753;49.196;8.286;2022-10-14T05:44:10;13.40;99.90
5461;DHT22;2753;49.196;8.286;2022-10-14T05:46:36;13.40;99.90
5461;DHT22;2753;49.196;8.286;2022-10-14T05:49:01;13.40;99.90
5461;DHT22;2753;49.196;8.286;2022-10-14T05:51:33;13.40;99.90
5461;DHT22;2753;49.196;8.286;2022-10-14T05:53:59;13.40;99.90
5461;DHT22;2753;49.196;8.286;2022-10-14T05:56:25;13.40;99.90
5461;DHT22;2753;49.196;8.286;2022-10-14T05:58:51;13.50;99.90
5461;DHT22;2753;49.196;8.286;2022-10-14T06:01:16;13.40;99.90
5461;DHT22;2753;49.196;8.286;2022-10-14T06:03:42;13.40;99.90
5461;DHT22;2753;49.196;8.286;2022-10-14T06:06:12;13.40;99.90
5461;DHT22;2753;49.196;8.286;2022-10-14T06:08:38;13.50;99.90
5461;DHT22;2753;49.196;8.286;2022-10-14T06:11:04;13.40;99.90
5461;DHT22;2753;49.196;8.286;2022-10-14T06:13:30;13.40;99.90
5461;DHT22;2753;49.196;8.286;2022-10-14T06:15:56;13.40;99.90
5461;DHT22;2753;49.196;8.286;2022-10-14T06:18:22;13.40;99.90
5461;DHT22;2753;49.196;8.286;2022-10-14T06:20:52;13.40;99.90
5461;DHT22;2753;49.196;8.286;2022-10-14T06:23:18;13.40;99.90
5461;DHT22;2753;49.196;8.286;2022-10-14T06:25:44;13.40;99.90
5461;DHT22;2753;49.196;8.286;2022-10-14T06:28:10;13.40;99.90
5461;DHT22;2753;49.196;8.286;2022-10-14T06:30:35;13.40;99.90
5461;DHT22;2753;49.196;8.286;2022-10-14T06:33:01;13.40;99.90
5461;DHT22;2753;49.196;8.286;2022-10-14T06:35:27;13.40;99.90
5461;DHT22;2753;49.196;8.286;2022-10-14T06:37:53;13.40;99.90
5461;DHT22;2753;49.196;8.286;2022-10-14T06:40:19;13.40;99.90
5461;DHT22;2753;49.196;8.286;2022-10-14T06:42:45;13.40;99.90
5461;DHT22;2753;49.196;8.286;2022-10-14T06:45:10;13.40;99.90
5461;DHT22;2753;49.196;8.286;2022-10-14T06:47:36;13.40;99.90
5461;DHT22;2753;49.196;8.286;2022-10-14T06:50:02;13.40;99.90
5461;DHT22;2753;49.196;8.286;2022-10-14T06:52:28;13.50;99.90
5461;DHT22;2753;49.196;8.286;2022-10-14T06:54:53;13.50;99.90
5461;DHT22;2753;49.196;8.286;2022-10-14T06:57:19;13.50;99.90
5461;DHT22;2753;49.196;8.286;2022-10-14T06:59:44;13.50;99.90
5461;DHT22;2753;49.196;8.286;2022-10-14T07:02:10;13.50;99.90
5461;DHT22;2753;49.196;8.286;2022-10-14T07:04:37;13.50;99.90
5461;DHT22;2753;49.196;8.286;2022-10-14T07:07:03;13.50;99.90
5461;DHT22;2753;49.196;8.286;2022-10-14T07:09:28;13.50;99.90
5461;DHT22;2753;49.196;8.286;2022-10-14T07:11:54;13.60;99.90
5461;DHT22;2753;49.196;8.286;2022-10-14T07:14:20;13.60;99.90
5461;DHT22;2753;49.196;8.286;2022-10-14T07:16:46;13.60;99.90
5461;DHT22;2753;49.196;8.286;2022-10-14T07:19:12;13.60;99.90
5461;DHT22;2753;49.196;8.286;2022-10-14T07:21:37;13.60;99.90
5461;DHT22;2753;49.196;8.286;2022-10-14T07:24:03;13.70;99.90
5461;DHT22;2753;49.196;8.286;2022-10-14T07:26:30;13.70;99.90
5461;DHT22;2753;49.196;8.286;2022-10-14T07:28:56;13.70;99.90
5461;DHT22;2753;49.196;8.286;2022-10-14T07:31:22;13.70;99.90
5461;DHT22;2753;49.196;8.286;2022-10-14T07:33:47;13.70;99.90
5461;DHT22;2753;49.196;8.286;2022-10-14T07:36:15;13.80;99.90
5461;DHT22;2753;49.196;8.286;2022-10-14T07:38:41;13.80;99.90
5461;DHT22;2753;49.196;8.286;2022-10-14T07:41:20;13.80;99.90
5461;DHT22;2753;49.196;8.286;2022-10-14T07:43:49;13.80;99.90
5461;DHT22;2753;49.196;8.286;2022-10-14T07:46:16;13.80;99.90
5461;DHT22;2753;49.196;8.286;2022-10-14T07:48:52;13.80;99.90
5461;DHT22;2753;49.196;8.286;2022-10-14T07:51:18;13.80;99.90
5461;DHT22;2753;49.196;8.286;2022-10-14T07:53:44;13.80;99.90
5461;DHT22;2753;49.196;8.286;2022-10-14T07:56:09;13.80;99.90
5461;DHT22;2753;49.196;8.286;2022-10-14T07:58:35;13.90;99.90
5461;DHT22;2753;49.196;8.286;2022-10-14T08:01:01;13.90;99.90
5461;DHT22;2753;49.196;8.286;2022-10-14T08:03:26;14.00;99.90
5461;DHT22;2753;49.196;8.286;2022-10-14T08:06:00;14.00;99.90
5461;DHT22;2753;49.196;8.286;2022-10-14T08:08:27;14.00;99.90
5461;DHT22;2753;49.196;8.286;2022-10-14T08:11:00;14.00;99.90
5461;DHT22;2753;49.196;8.286;2022-10-14T08:13:26;14.00;99.90
5461;DHT22;2753;49.196;8.286;2022-10-14T08:15:52;14.00;99.90
5461;DHT22;2753;49.196;8.286;2022-10-14T08:18:17;14.00;99.90
5461;DHT22;2753;49.196;8.286;2022-10-14T08:20:43;14.00;99.90
5461;DHT22;2753;49.196;8.286;2022-10-14T08:23:08;14.10;99.90
5461;DHT22;2753;49.196;8.286;2022-10-14T08:25:36;14.10;99.90
5461;DHT22;2753;49.196;8.286;2022-10-14T08:28:02;14.10;99.90
5461;DHT22;2753;49.196;8.286;2022-10-14T08:30:28;14.10;99.90
5461;DHT22;2753;49.196;8.286;2022-10-14T08:32:53;14.20;99.90
5461;DHT22;2753;49.196;8.286;2022-10-14T08:35:19;14.20;99.90
5461;DHT22;2753;49.196;8.286;2022-10-14T08:38:00;14.20;99.90
5461;DHT22;2753;49.196;8.286;2022-10-14T08:40:41;14.20;99.90
5461;DHT22;2753;49.196;8.286;2022-10-14T08:43:28;14.20;99.90
5461;DHT22;2753;49.196;8.286;2022-10-14T08:45:59;14.30;99.90
5461;DHT22;2753;49.196;8.286;2022-10-14T08:48:30;14.30;99.90
5461;DHT22;2753;49.196;8.286;2022-10-14T08:51:13;14.30;99.90
5461;DHT22;2753;49.196;8.286;2022-10-14T08:53:50;14.30;99.90
5461;DHT22;2753;49.196;8.286;2022-10-14T08:56:18;14.40;99.90
5461;DHT22;2753;49.196;8.286;2022-10-14T08:58:48;14.40;99.90
5461;DHT22;2753;49.196;8.286;2022-10-14T09:01:29;14.40;99.90
5461;DHT22;2753;49.196;8.286;2022-10-14T09:03:58;14.50;99.90
5461;DHT22;2753;49.196;8.286;2022-10-14T09:06:27;14.50;99.90
5461;DHT22;2753;49.196;8.286;2022-10-14T09:09:03;14.50;99.90
5461;DHT22;2753;49.196;8.286;2022-10-14T09:11:36;14.50;99.90
5461;DHT22;2753;49.196;8.286;2022-10-14T09:14:05;14.50;99.90
5461;DHT22;2753;49.196;8.286;2022-10-14T09:16:34;14.50;99.90
5461;DHT22;2753;49.196;8.286;2022-10-14T09:19:04;14.60;99.90
5461;DHT22;2753;49.196;8.286;2022-10-14T09:21:36;14.60;99.90
5461;DHT22;2753;49.196;8.286;2022-10-14T09:24:15;14.60;99.90
5461;DHT22;2753;49.196;8.286;2022-10-14T09:26:45;14.60;99.90
5461;DHT22;2753;49.196;8.286;2022-10-14T09:29:24;14.60;99.90
5461;DHT22;2753;49.196;8.286;2022-10-14T09:31:52;14.70;99.90
5461;DHT22;2753;49.196;8.286;2022-10-14T09:34:33;14.70;99.90
5461;DHT22;2753;49.196;8.286;2022-10-14T09:37:24;14.70;99.90
5461;DHT22;2753;49.196;8.286;2022-10-14T09:39:51;14.80;99.90
5461;DHT22;2753;49.196;8.286;2022-10-14T09:42:26;14.80;99.90
5461;DHT22;2753;49.196;8.286;2022-10-14T09:45:13;14.80;99.90
5461;DHT22;2753;49.196;8.286;2022-10-14T09:47:59;14.80;99.90
5461;DHT22;2753;49.196;8.286;2022-10-14T09:50:40;14.90;99.90
5461;DHT22;2753;49.196;8.286;2022-10-14T09:55:54;14.90;99.90
5461;DHT22;2753;49.196;8.286;2022-10-14T09:58:45;15.00;99.90
5461;DHT22;2753;49.196;8.286;2022-10-14T10:01:22;15.00;99.90
5461;DHT22;2753;49.196;8.286;2022-10-14T10:03:51;15.00;99.90
5461;DHT22;2753;49.196;8.286;2022-10-14T10:06:20;15.10;99.90
5461;DHT22;2753;49.196;8.286;2022-10-14T10:11:33;15.10;99.90
5461;DHT22;2753;49.196;8.286;2022-10-14T10:14:23;15.10;99.90
5461;DHT22;2753;49.196;8.286;2022-10-14T10:17:33;15.10;99.90
5461;DHT22;2753;49.196;8.286;2022-10-14T10:19:41;15.20;99.90
5461;DHT22;2753;49.196;8.286;2022-10-14T10:25:15;15.20;99.90
5461;DHT22;2753;49.196;8.286;2022-10-14T10:27:44;15.20;99.90
5461;DHT22;2753;49.196;8.286;2022-10-14T10:38:56;15.20;99.90
5461;DHT22;2753;49.196;8.286;2022-10-14T10:52:05;15.30;99.90
5461;DHT22;2753;49.196;8.286;2022-10-14T10:54:49;15.30;99.90
5461;DHT22;2753;49.196;8.286;2022-10-14T11:00:02;15.30;99.90
5461;DHT22;2753;49.196;8.286;2022-10-14T11:11:25;15.30;99.90
5461;DHT22;2753;49.196;8.286;2022-10-14T11:14:37;15.40;99.90
5461;DHT22;2753;49.196;8.286;2022-10-14T11:25:21;15.50;99.90
5461;DHT22;2753;49.196;8.286;2022-10-14T11:28:06;15.50;99.90
5461;DHT22;2753;49.196;8.286;2022-10-14T11:33:47;15.60;99.90
5461;DHT22;2753;49.196;8.286;2022-10-14T11:36:42;15.70;99.90
5461;DHT22;2753;49.196;8.286;2022-10-14T11:39:35;15.70;99.90
5461;DHT22;2753;49.196;8.286;2022-10-14T11:44:43;15.80;99.90
5461;DHT22;2753;49.196;8.286;2022-10-14T11:47:24;15.80;99.90
5461;DHT22;2753;49.196;8.286;2022-10-14T11:52:34;15.80;99.90
5461;DHT22;2753;49.196;8.286;2022-10-14T11:55:05;15.80;99.90
5461;DHT22;2753;49.196;8.286;2022-10-14T11:57:41;15.90;99.90
5461;DHT22;2753;49.196;8.286;2022-10-14T12:00:20;15.90;99.90
5461;DHT22;2753;49.196;8.286;2022-10-14T12:03:12;15.90;99.90
5461;DHT22;2753;49.196;8.286;2022-10-14T12:05:46;15.90;99.90
5461;DHT22;2753;49.196;8.286;2022-10-14T12:13:47;16.00;99.90
5461;DHT22;2753;49.196;8.286;2022-10-14T12:16:19;16.00;99.90
5461;DHT22;2753;49.196;8.286;2022-10-14T12:18:49;16.00;99.90
5461;DHT22;2753;49.196;8.286;2022-10-14T12:21:21;16.00;99.90
5461;DHT22;2753;49.196;8.286;2022-10-14T12:23:53;16.10;99.90
5461;DHT22;2753;49.196;8.286;2022-10-14T12:28:49;16.10;99.90
5461;DHT22;2753;49.196;8.286;2022-10-14T12:31:20;16.10;99.90
5461;DHT22;2753;49.196;8.286;2022-10-14T12:36:41;16.20;99.90
5461;DHT22;2753;49.196;8.286;2022-10-14T12:41:54;16.30;99.90
5461;DHT22;2753;49.196;8.286;2022-10-14T12:44:33;16.40;99.90
5461;DHT22;2753;49.196;8.286;2022-10-14T12:46:59;16.40;99.90
5461;DHT22;2753;49.196;8.286;2022-10-14T12:49:31;16.40;99.90
5461;DHT22;2753;49.196;8.286;2022-10-14T12:52:01;16.40;99.90
5461;DHT22;2753;49.196;8.286;2022-10-14T12:54:27;16.40;99.90
5461;DHT22;2753;49.196;8.286;2022-10-14T12:57:00;16.30;99.90
5461;DHT22;2753;49.196;8.286;2022-10-14T13:01:59;16.30;99.90
5461;DHT22;2753;49.196;8.286;2022-10-14T13:04:29;16.30;99.90
5461;DHT22;2753;49.196;8.286;2022-10-14T13:09:46;16.30;99.90
5461;DHT22;2753;49.196;8.286;2022-10-14T13:15:00;16.40;99.90
5461;DHT22;2753;49.196;8.286;2022-10-14T13:17:30;16.40;99.90
5461;DHT22;2753;49.196;8.286;2022-10-14T13:29:08;16.40;99.90
5461;DHT22;2753;49.196;8.286;2022-10-14T13:37:32;16.40;99.90
5461;DHT22;2753;49.196;8.286;2022-10-14T13:40:23;16.40;99.90
5461;DHT22;2753;49.196;8.286;2022-10-14T13:42:54;16.30;99.90
5461;DHT22;2753;49.196;8.286;2022-10-14T13:45:26;16.30;99.90
5461;DHT22;2753;49.196;8.286;2022-10-14T13:47:53;16.30;99.90
5461;DHT22;2753;49.196;8.286;2022-10-14T13:50:22;16.30;99.90
5461;DHT22;2753;49.196;8.286;2022-10-14T13:53:06;16.30;99.90
5461;DHT22;2753;49.196;8.286;2022-10-14T13:55:43;16.30;99.90
5461;DHT22;2753;49.196;8.286;2022-10-14T13:58:17;16.30;99.90
5461;DHT22;2753;49.196;8.286;2022-10-14T14:03:35;16.20;99.90
5461;DHT22;2753;49.196;8.286;2022-10-14T14:06:24;16.20;99.90
5461;DHT22;2753;49.196;8.286;2022-10-14T14:08:54;16.20;99.90
5461;DHT22;2753;49.196;8.286;2022-10-14T14:11:26;16.20;99.90
5461;DHT22;2753;49.196;8.286;2022-10-14T14:16:23;16.20;99.90
5461;DHT22;2753;49.196;8.286;2022-10-14T14:18:51;16.20;99.90
5461;DHT22;2753;49.196;8.286;2022-10-14T14:21:20;16.20;99.90
5461;DHT22;2753;49.196;8.286;2022-10-14T14:23:58;16.20;99.90
5461;DHT22;2753;49.196;8.286;2022-10-14T14:26:37;16.20;99.90
5461;DHT22;2753;49.196;8.286;2022-10-14T14:29:05;16.10;99.90
5461;DHT22;2753;49.196;8.286;2022-10-14T14:31:32;16.10;99.90
5461;DHT22;2753;49.196;8.286;2022-10-14T14:33:58;16.10;99.90
5461;DHT22;2753;49.196;8.286;2022-10-14T14:36:27;16.10;99.90
5461;DHT22;2753;49.196;8.286;2022-10-14T14:38:57;16.10;99.90
5461;DHT22;2753;49.196;8.286;2022-10-14T14:41:28;16.10;99.90
5461;DHT22;2753;49.196;8.286;2022-10-14T14:44:02;16.10;99.90
5461;DHT22;2753;49.196;8.286;2022-10-14T14:46:38;16.10;99.90
5461;DHT22;2753;49.196;8.286;2022-10-14T14:49:06;16.10;99.90
5461;DHT22;2753;49.196;8.286;2022-10-14T14:51:35;16.10;99.90
5461;DHT22;2753;49.196;8.286;2022-10-14T14:54:02;16.10;99.90
5461;DHT22;2753;49.196;8.286;2022-10-14T14:57:05;16.10;99.90
5461;DHT22;2753;49.196;8.286;2022-10-14T14:59:36;16.10;99.90
5461;DHT22;2753;49.196;8.286;2022-10-14T15:02:15;16.00;99.90
5461;DHT22;2753;49.196;8.286;2022-10-14T15:04:41;16.00;99.90
5461;DHT22;2753;49.196;8.286;2022-10-14T15:07:14;16.00;99.90
5461;DHT22;2753;49.196;8.286;2022-10-14T15:09:45;16.00;99.90
5461;DHT22;2753;49.196;8.286;2022-10-14T15:12:21;16.00;99.90
5461;DHT22;2753;49.196;8.286;2022-10-14T15:14:49;16.00;99.90
5461;DHT22;2753;49.196;8.286;2022-10-14T15:19:52;16.00;99.90
5461;DHT22;2753;49.196;8.286;2022-10-14T15:22:51;16.00;99.90
5461;DHT22;2753;49.196;8.286;2022-10-14T15:27:52;16.00;99.90
5461;DHT22;2753;49.196;8.286;2022-10-14T15:30:29;16.10;99.90
5461;DHT22;2753;49.196;8.286;2022-10-14T15:35:43;16.10;99.90
5461;DHT22;2753;49.196;8.286;2022-10-14T15:38:15;16.00;99.90
5461;DHT22;2753;49.196;8.286;2022-10-14T15:40:41;16.00;99.90
5461;DHT22;2753;49.196;8.286;2022-10-14T15:43:16;16.00;99.90
5461;DHT22;2753;49.196;8.286;2022-10-14T15:45:43;16.00;99.90
5461;DHT22;2753;49.196;8.286;2022-10-14T15:48:19;16.00;99.90
5461;DHT22;2753;49.196;8.286;2022-10-14T15:50:45;16.00;99.90
5461;DHT22;2753;49.196;8.286;2022-10-14T15:53:11;16.00;99.90
5461;DHT22;2753;49.196;8.286;2022-10-14T15:55:38;16.00;99.90
5461;DHT22;2753;49.196;8.286;2022-10-14T15:58:04;16.00;99.90
5461;DHT22;2753;49.196;8.286;2022-10-14T16:00:30;16.00;99.90
5461;DHT22;2753;49.196;8.286;2022-10-14T16:02:57;16.00;99.90
5461;DHT22;2753;49.196;8.286;2022-10-14T16:05:25;16.00;99.90
5461;DHT22;2753;49.196;8.286;2022-10-14T16:07:51;16.00;99.90
5461;DHT22;2753;49.196;8.286;2022-10-14T16:10:19;16.00;99.90
5461;DHT22;2753;49.196;8.286;2022-10-14T16:12:45;16.00;99.90
5461;DHT22;2753;49.196;8.286;2022-10-14T16:17:55;16.00;99.90
5461;DHT22;2753;49.196;8.286;2022-10-14T16:20:21;16.00;99.90
5461;DHT22;2753;49.196;8.286;2022-10-14T16:22:47;15.90;99.90
5461;DHT22;2753;49.196;8.286;2022-10-14T16:25:43;15.90;99.90
5461;DHT22;2753;49.196;8.286;2022-10-14T16:28:09;15.90;99.90
5461;DHT22;2753;49.196;8.286;2022-10-14T16:30:38;15.90;99.90
5461;DHT22;2753;49.196;8.286;2022-10-14T16:33:04;15.90;99.90
5461;DHT22;2753;49.196;8.286;2022-10-14T16:35:30;15.90;99.90
5461;DHT22;2753;49.196;8.286;2022-10-14T16:37:56;15.90;99.90
5461;DHT22;2753;49.196;8.286;2022-10-14T16:40:22;15.90;99.90
5461;DHT22;2753;49.196;8.286;2022-10-14T16:42:48;15.90;99.90
5461;DHT22;2753;49.196;8.286;2022-10-14T16:45:14;15.90;99.90
5461;DHT22;2753;49.196;8.286;2022-10-14T16:47:39;15.90;99.90
5461;DHT22;2753;49.196;8.286;2022-10-14T16:50:06;15.90;99.90
5461;DHT22;2753;49.196;8.286;2022-10-14T16:52:32;15.90;99.90
5461;DHT22;2753;49.196;8.286;2022-10-14T16:55:19;15.90;99.90
5461;DHT22;2753;49.196;8.286;2022-10-14T16:57:45;15.80;99.90
5461;DHT22;2753;49.196;8.286;2022-10-14T17:00:12;15.80;99.90
5461;DHT22;2753;49.196;8.286;2022-10-14T17:02:38;15.80;99.90
5461;DHT22;2753;49.196;8.286;2022-10-14T17:05:04;15.80;99.90
5461;DHT22;2753;49.196;8.286;2022-10-14T17:07:29;15.80;99.90
5461;DHT22;2753;49.196;8.286;2022-10-14T17:09:55;15.80;99.90
5461;DHT22;2753;49.196;8.286;2022-10-14T17:12:22;15.80;99.90
5461;DHT22;2753;49.196;8.286;2022-10-14T17:14:48;15.80;99.90
5461;DHT22;2753;49.196;8.286;2022-10-14T17:17:13;15.80;99.90
5461;DHT22;2753;49.196;8.286;2022-10-14T17:19:39;15.80;99.90
5461;DHT22;2753;49.196;8.286;2022-10-14T17:22:05;15.80;99.90
5461;DHT22;2753;49.196;8.286;2022-10-14T17:24:31;15.80;99.90
5461;DHT22;2753;49.196;8.286;2022-10-14T17:26:56;15.80;99.90
5461;DHT22;2753;49.196;8.286;2022-10-14T17:29:22;15.80;99.90
5461;DHT22;2753;49.196;8.286;2022-10-14T17:31:48;15.80;99.90
5461;DHT22;2753;49.196;8.286;2022-10-14T17:34:14;15.80;99.90
5461;DHT22;2753;49.196;8.286;2022-10-14T17:36:40;15.70;99.90
5461;DHT22;2753;49.196;8.286;2022-10-14T17:39:06;15.80;99.90
5461;DHT22;2753;49.196;8.286;2022-10-14T17:41:36;15.80;99.90
5461;DHT22;2753;49.196;8.286;2022-10-14T17:44:02;15.80;99.90
5461;DHT22;2753;49.196;8.286;2022-10-14T17:46:28;15.80;99.90
5461;DHT22;2753;49.196;8.286;2022-10-14T17:48:58;15.80;99.90
5461;DHT22;2753;49.196;8.286;2022-10-14T17:51:25;15.80;99.90
5461;DHT22;2753;49.196;8.286;2022-10-14T17:53:55;15.80;99.90
5461;DHT22;2753;49.196;8.286;2022-10-14T17:56:23;15.70;99.90
5461;DHT22;2753;49.196;8.286;2022-10-14T17:58:53;15.70;99.90
5461;DHT22;2753;49.196;8.286;2022-10-14T18:01:20;15.70;99.90
5461;DHT22;2753;49.196;8.286;2022-10-14T18:03:46;15.70;99.90
5461;DHT22;2753;49.196;8.286;2022-10-14T18:08:39;15.70;99.90
5461;DHT22;2753;49.196;8.286;2022-10-14T18:11:05;15.70;99.90
5461;DHT22;2753;49.196;8.286;2022-10-14T18:13:32;15.70;99.90
5461;DHT22;2753;49.196;8.286;2022-10-14T18:16:02;15.60;99.90
5461;DHT22;2753;49.196;8.286;2022-10-14T18:18:28;15.60;99.90
5461;DHT22;2753;49.196;8.286;2022-10-14T18:20:55;15.60;99.90
5461;DHT22;2753;49.196;8.286;2022-10-14T18:23:22;15.60;99.90
5461;DHT22;2753;49.196;8.286;2022-10-14T18:25:47;15.60;99.90
5461;DHT22;2753;49.196;8.286;2022-10-14T18:28:13;15.50;99.90
5461;DHT22;2753;49.196;8.286;2022-10-14T18:30:39;15.50;99.90
5461;DHT22;2753;49.196;8.286;2022-10-14T18:33:04;15.50;99.90
5461;DHT22;2753;49.196;8.286;2022-10-14T18:35:30;15.50;99.90
5461;DHT22;2753;49.196;8.286;2022-10-14T18:37:56;15.50;99.90
5461;DHT22;2753;49.196;8.286;2022-10-14T18:43:43;15.50;99.90
5461;DHT22;2753;49.196;8.286;2022-10-14T18:46:12;15.50;99.90